sensor_id;sensor_type;location;lat;lon;timestamp;pressure;altitude;pressure_sealevel;temperature;humidity
36304;BME280;22335;49.800;8.596;2023-08-21T00:00:52;100893.50;;;31.67;43.35
36304;BME280;22335;49.800;8.596;2023-08-21T00:07:35;100891.63;;;31.53;43.74
36304;BME280;22335;49.800;8.596;2023-08-21T00:14:19;100936.31;;;31.69;43.82
36304;BME280;22335;49.800;8.596;2023-08-21T00:21:04;100936.00;;;31.60;43.89
36304;BME280;22335;49.800;8.596;2023-08-21T00:27:47;100949.41;;;31.49;44.30
36304;BME280;22335;49.800;8.596;2023-08-21T00:34:31;100942.31;;;31.26;44.29
36304;BME280;22335;49.800;8.596;2023-08-21T00:41:16;100930.22;;;31.18;44.57
36304;BME280;22335;49.800;8.596;2023-08-21T00:48:00;100927.94;;;30.99;44.88
36304;BME280;22335;49.800;8.596;2023-08-21T00:54:44;100933.72;;;30.77;45.48
36304;BME280;22335;49.800;8.596;2023-08-21T01:01:29;100904.03;;;30.44;45.98
36304;BME280;22335;49.800;8.596;2023-08-21T01:08:17;100931.44;;;30.47;45.98
36304;BME280;22335;49.800;8.596;2023-08-21T01:15:07;100919.88;;;30.20;46.77
36304;BME280;22335;49.800;8.596;2023-08-21T01:21:52;100897.75;;;29.90;46.76
36304;BME280;22335;49.800;8.596;2023-08-21T01:28:38;100936.00;;;29.95;47.08
36304;BME280;22335;49.800;8.596;2023-08-21T01:35:22;100936.03;;;29.80;47.82
36304;BME280;22335;49.800;8.596;2023-08-21T01:42:06;100954.97;;;29.80;47.81
36304;BME280;22335;49.800;8.596;2023-08-21T01:48:50;100945.34;;;29.70;48.30
36304;BME280;22335;49.800;8.596;2023-08-21T01:55:34;100940.06;;;29.47;47.32
36304;BME280;22335;49.800;8.596;2023-08-21T02:02:17;100952.13;;;29.40;48.36
36304;BME280;22335;49.800;8.596;2023-08-21T02:09:02;100946.50;;;29.30;48.75
36304;BME280;22335;49.800;8.596;2023-08-21T02:15:45;100948.47;;;29.08;48.21
36304;BME280;22335;49.800;8.596;2023-08-21T02:22:29;100944.41;;;28.94;49.69
36304;BME280;22335;49.800;8.596;2023-08-21T02:29:14;100956.47;;;28.91;50.04
36304;BME280;22335;49.800;8.596;2023-08-21T02:35:57;100945.97;;;28.78;49.13
36304;BME280;22335;49.800;8.596;2023-08-21T02:42:44;100963.66;;;28.78;50.25
36304;BME280;22335;49.800;8.596;2023-08-21T03:04:37;100960.31;;;28.44;51.36
36304;BME280;22335;49.800;8.596;2023-08-21T03:11:20;100975.63;;;28.50;51.57
36304;BME280;22335;49.800;8.596;2023-08-21T03:18:04;100965.97;;;28.51;51.50
36304;BME280;22335;49.800;8.596;2023-08-21T03:24:49;100947.50;;;28.54;51.61
36304;BME280;22335;49.800;8.596;2023-08-21T03:31:32;100914.72;;;28.17;51.92
36304;BME280;22335;49.800;8.596;2023-08-21T03:38:16;100970.78;;;28.47;52.01
36304;BME280;22335;49.800;8.596;2023-08-21T03:45:02;100959.41;;;28.33;52.37
36304;BME280;22335;49.800;8.596;2023-08-21T03:51:46;100977.03;;;28.19;52.58
36304;BME280;22335;49.800;8.596;2023-08-21T03:58:29;100983.03;;;28.17;52.75
36304;BME280;22335;49.800;8.596;2023-08-21T04:05:15;100978.19;;;28.14;52.96
36304;BME280;22335;49.800;8.596;2023-08-21T04:11:59;100989.84;;;28.09;52.82
36304;BME280;22335;49.800;8.596;2023-08-21T04:18:42;100988.22;;;28.08;52.84
36304;BME280;22335;49.800;8.596;2023-08-21T04:25:27;100969.63;;;27.93;53.21
36304;BME280;22335;49.800;8.596;2023-08-21T04:32:10;100993.34;;;27.95;53.54
36304;BME280;22335;49.800;8.596;2023-08-21T04:38:55;100995.66;;;27.83;53.38
36304;BME280;22335;49.800;8.596;2023-08-21T04:45:47;100946.78;;;27.50;53.53
36304;BME280;22335;49.800;8.596;2023-08-21T04:52:32;100998.38;;;27.72;53.93
36304;BME280;22335;49.800;8.596;2023-08-21T04:59:16;100975.25;;;27.45;54.03
36304;BME280;22335;49.800;8.596;2023-08-21T05:06:01;100974.00;;;27.39;54.49
36304;BME280;22335;49.800;8.596;2023-08-21T05:12:44;101013.44;;;27.53;54.45
36304;BME280;22335;49.800;8.596;2023-08-21T05:19:29;101015.81;;;27.47;54.79
36304;BME280;22335;49.800;8.596;2023-08-21T05:26:14;101012.16;;;27.43;54.94
36304;BME280;22335;49.800;8.596;2023-08-21T05:32:58;101035.78;;;27.39;55.18
36304;BME280;22335;49.800;8.596;2023-08-21T05:39:41;101032.44;;;27.26;55.32
36304;BME280;22335;49.800;8.596;2023-08-21T05:46:26;100989.56;;;26.95;55.54
36304;BME280;22335;49.800;8.596;2023-08-21T05:53:10;101051.84;;;27.38;55.23
36304;BME280;22335;49.800;8.596;2023-08-21T05:59:54;101030.13;;;27.35;54.87
36304;BME280;22335;49.800;8.596;2023-08-21T06:06:39;101036.88;;;27.68;54.75
36304;BME280;22335;49.800;8.596;2023-08-21T06:13:23;101050.41;;;27.99;54.25
36304;BME280;22335;49.800;8.596;2023-08-21T06:20:09;101046.13;;;28.16;53.57
36304;BME280;22335;49.800;8.596;2023-08-21T06:26:56;101042.19;;;28.28;53.62
36304;BME280;22335;49.800;8.596;2023-08-21T06:33:40;101049.44;;;28.33;53.65
36304;BME280;22335;49.800;8.596;2023-08-21T06:40:26;101054.34;;;28.43;53.51
36304;BME280;22335;49.800;8.596;2023-08-21T06:47:13;101037.56;;;28.57;53.52
36304;BME280;22335;49.800;8.596;2023-08-21T06:53:57;101056.56;;;28.75;53.07
36304;BME280;22335;49.800;8.596;2023-08-21T07:00:41;101057.41;;;28.89;52.76
36304;BME280;22335;49.800;8.596;2023-08-21T07:07:25;101044.97;;;28.90;53.17
36304;BME280;22335;49.800;8.596;2023-08-21T07:14:09;101025.53;;;28.64;52.54
36304;BME280;22335;49.800;8.596;2023-08-21T07:20:54;101060.75;;;29.06;52.96
36304;BME280;22335;49.800;8.596;2023-08-21T07:27:39;101044.28;;;29.22;52.51
36304;BME280;22335;49.800;8.596;2023-08-21T07:34:23;101059.25;;;29.48;52.01
36304;BME280;22335;49.800;8.596;2023-08-21T07:41:08;101045.22;;;29.80;51.87
36304;BME280;22335;49.800;8.596;2023-08-21T07:47:53;101037.94;;;30.18;51.20
36304;BME280;22335;49.800;8.596;2023-08-21T07:54:45;101043.97;;;30.42;51.37
36304;BME280;22335;49.800;8.596;2023-08-21T08:01:29;101043.50;;;30.65;50.64
36304;BME280;22335;49.800;8.596;2023-08-21T08:08:16;101000.72;;;30.63;50.84
36304;BME280;22335;49.800;8.596;2023-08-21T08:15:00;100966.47;;;30.61;49.85
36304;BME280;22335;49.800;8.596;2023-08-21T08:21:43;101050.88;;;31.32;49.88
36304;BME280;22335;49.800;8.596;2023-08-21T08:28:28;101041.06;;;31.55;49.66
36304;BME280;22335;49.800;8.596;2023-08-21T08:35:12;101039.69;;;31.74;48.76
36304;BME280;22335;49.800;8.596;2023-08-21T08:41:58;101036.22;;;32.07;48.24
36304;BME280;22335;49.800;8.596;2023-08-21T08:48:46;101033.06;;;32.36;48.33
36304;BME280;22335;49.800;8.596;2023-08-21T08:55:30;101037.34;;;32.55;48.58
36304;BME280;22335;49.800;8.596;2023-08-21T09:02:15;101027.44;;;32.70;47.90
36304;BME280;22335;49.800;8.596;2023-08-21T09:09:00;101028.03;;;32.89;47.24
36304;BME280;22335;49.800;8.596;2023-08-21T09:15:44;101030.75;;;32.99;47.00
36304;BME280;22335;49.800;8.596;2023-08-21T09:22:29;101020.63;;;32.98;47.72
36304;BME280;22335;49.800;8.596;2023-08-21T09:29:14;101011.53;;;33.14;46.96
36304;BME280;22335;49.800;8.596;2023-08-21T09:35:58;101013.94;;;33.16;46.88
36304;BME280;22335;49.800;8.596;2023-08-21T09:42:42;101025.75;;;33.38;46.56
36304;BME280;22335;49.800;8.596;2023-08-21T09:49:29;101007.69;;;33.55;46.17
36304;BME280;22335;49.800;8.596;2023-08-21T09:56:13;101016.09;;;33.86;46.21
36304;BME280;22335;49.800;8.596;2023-08-21T10:02:59;101008.13;;;34.01;46.33
36304;BME280;22335;49.800;8.596;2023-08-21T10:09:45;101004.34;;;34.31;45.79
36304;BME280;22335;49.800;8.596;2023-08-21T10:16:29;100934.38;;;33.97;44.98
36304;BME280;22335;49.800;8.596;2023-08-21T10:23:24;100996.59;;;34.55;44.06
36304;BME280;22335;49.800;8.596;2023-08-21T10:30:15;101003.88;;;34.76;42.80
36304;BME280;22335;49.800;8.596;2023-08-21T10:37:08;100995.16;;;34.83;43.08
36304;BME280;22335;49.800;8.596;2023-08-21T10:43:54;101004.19;;;34.98;42.36
36304;BME280;22335;49.800;8.596;2023-08-21T10:50:42;100987.97;;;35.15;41.27
36304;BME280;22335;49.800;8.596;2023-08-21T10:57:27;100980.00;;;35.26;40.14
36304;BME280;22335;49.800;8.596;2023-08-21T11:04:11;100987.13;;;35.34;40.22
36304;BME280;22335;49.800;8.596;2023-08-21T11:10:56;100929.25;;;35.08;39.82
36304;BME280;22335;49.800;8.596;2023-08-21T11:17:40;100977.44;;;35.48;37.98
36304;BME280;22335;49.800;8.596;2023-08-21T11:24:29;100965.19;;;35.67;37.61
36304;BME280;22335;49.800;8.596;2023-08-21T11:31:15;100940.22;;;35.59;36.82
36304;BME280;22335;49.800;8.596;2023-08-21T11:37:59;100968.88;;;35.97;36.43
36304;BME280;22335;49.800;8.596;2023-08-21T11:44:44;100958.47;;;36.07;35.09
36304;BME280;22335;49.800;8.596;2023-08-21T11:51:38;100951.31;;;36.15;35.12
36304;BME280;22335;49.800;8.596;2023-08-21T11:58:21;100963.09;;;36.30;34.89
36304;BME280;22335;49.800;8.596;2023-08-21T12:05:07;100914.50;;;36.08;33.62
36304;BME280;22335;49.800;8.596;2023-08-21T12:11:59;100957.63;;;36.52;32.64
36304;BME280;22335;49.800;8.596;2023-08-21T12:18:42;100958.31;;;36.68;32.10
36304;BME280;22335;49.800;8.596;2023-08-21T12:25:26;100965.84;;;36.62;32.35
36304;BME280;22335;49.800;8.596;2023-08-21T12:32:11;100932.78;;;36.78;30.95
36304;BME280;22335;49.800;8.596;2023-08-21T12:38:54;100953.69;;;37.00;30.68
36304;BME280;22335;49.800;8.596;2023-08-21T12:45:38;100941.22;;;36.94;30.25
36304;BME280;22335;49.800;8.596;2023-08-21T12:52:23;100924.25;;;37.16;31.03
36304;BME280;22335;49.800;8.596;2023-08-21T12:59:06;100924.34;;;37.38;30.66
36304;BME280;22335;49.800;8.596;2023-08-21T13:05:50;100914.53;;;37.39;29.72
36304;BME280;22335;49.800;8.596;2023-08-21T13:12:36;100907.44;;;37.44;31.17
36304;BME280;22335;49.800;8.596;2023-08-21T13:19:19;100920.94;;;37.30;30.22
36304;BME280;22335;49.800;8.596;2023-08-21T13:26:03;100899.84;;;37.15;31.37
36304;BME280;22335;49.800;8.596;2023-08-21T13:32:47;100902.94;;;37.21;30.35
36304;BME280;22335;49.800;8.596;2023-08-21T13:39:31;100912.81;;;37.42;29.65
36304;BME280;22335;49.800;8.596;2023-08-21T13:46:17;100894.56;;;37.52;30.06
36304;BME280;22335;49.800;8.596;2023-08-21T13:53:03;100885.34;;;37.70;29.16
36304;BME280;22335;49.800;8.596;2023-08-21T13:59:46;100863.91;;;37.65;29.62
36304;BME280;22335;49.800;8.596;2023-08-21T14:06:29;100880.09;;;37.90;30.06
36304;BME280;22335;49.800;8.596;2023-08-21T14:13:14;100868.06;;;38.08;29.38
36304;BME280;22335;49.800;8.596;2023-08-21T14:19:57;100868.91;;;37.96;29.09
36304;BME280;22335;49.800;8.596;2023-08-21T14:26:41;100856.69;;;37.73;30.00
36304;BME280;22335;49.800;8.596;2023-08-21T14:33:26;100848.44;;;37.75;29.48
36304;BME280;22335;49.800;8.596;2023-08-21T14:40:10;100857.19;;;37.81;29.24
36304;BME280;22335;49.800;8.596;2023-08-21T14:46:54;100847.56;;;37.66;30.08
36304;BME280;22335;49.800;8.596;2023-08-21T14:53:40;100836.97;;;37.66;29.19
36304;BME280;22335;49.800;8.596;2023-08-21T15:00:23;100836.00;;;37.69;29.33
36304;BME280;22335;49.800;8.596;2023-08-21T15:07:07;100837.06;;;37.63;29.69
36304;BME280;22335;49.800;8.596;2023-08-21T15:13:51;100823.66;;;37.50;29.82
36304;BME280;22335;49.800;8.596;2023-08-21T15:20:35;100814.16;;;37.53;29.72
36304;BME280;22335;49.800;8.596;2023-08-21T15:27:19;100803.38;;;37.70;29.81
36304;BME280;22335;49.800;8.596;2023-08-21T15:34:03;100794.72;;;37.61;30.34
36304;BME280;22335;49.800;8.596;2023-08-21T15:40:47;100806.53;;;37.72;29.99
36304;BME280;22335;49.800;8.596;2023-08-21T15:47:30;100792.25;;;37.72;30.33
36304;BME280;22335;49.800;8.596;2023-08-21T15:54:18;100772.03;;;37.57;29.92
36304;BME280;22335;49.800;8.596;2023-08-21T16:01:02;100781.84;;;37.56;29.76
36304;BME280;22335;49.800;8.596;2023-08-21T16:07:45;100772.16;;;37.54;30.29
36304;BME280;22335;49.800;8.596;2023-08-21T16:14:30;100761.25;;;37.39;29.97
36304;BME280;22335;49.800;8.596;2023-08-21T16:21:14;100766.88;;;37.30;30.47
36304;BME280;22335;49.800;8.596;2023-08-21T16:27:57;100763.34;;;37.26;30.44
36304;BME280;22335;49.800;8.596;2023-08-21T16:34:42;100750.25;;;37.16;31.18
36304;BME280;22335;49.800;8.596;2023-08-21T16:41:25;100756.81;;;37.04;32.34
36304;BME280;22335;49.800;8.596;2023-08-21T16:48:09;100754.03;;;37.13;32.45
36304;BME280;22335;49.800;8.596;2023-08-21T16:54:53;100744.31;;;37.23;31.98
36304;BME280;22335;49.800;8.596;2023-08-21T17:01:38;100750.88;;;37.33;31.79
36304;BME280;22335;49.800;8.596;2023-08-21T17:08:22;100722.28;;;37.24;31.04
36304;BME280;22335;49.800;8.596;2023-08-21T17:15:08;100688.25;;;37.07;30.98
36304;BME280;22335;49.800;8.596;2023-08-21T17:21:52;100745.25;;;37.42;31.37
36304;BME280;22335;49.800;8.596;2023-08-21T17:28:35;100731.44;;;37.41;31.66
36304;BME280;22335;49.800;8.596;2023-08-21T17:35:21;100736.16;;;37.34;31.74
36304;BME280;22335;49.800;8.596;2023-08-21T17:42:05;100737.22;;;37.28;31.74
36304;BME280;22335;49.800;8.596;2023-08-21T17:48:49;100730.28;;;37.16;31.74
36304;BME280;22335;49.800;8.596;2023-08-21T17:55:35;100717.09;;;37.09;32.20
36304;BME280;22335;49.800;8.596;2023-08-21T18:02:18;100737.44;;;36.99;32.45
36304;BME280;22335;49.800;8.596;2023-08-21T18:09:05;100730.00;;;36.88;32.46
36304;BME280;22335;49.800;8.596;2023-08-21T18:15:50;100723.53;;;36.88;33.74
36304;BME280;22335;49.800;8.596;2023-08-21T18:22:34;100737.59;;;36.69;34.42
36304;BME280;22335;49.800;8.596;2023-08-21T18:29:17;100745.38;;;36.56;34.94
36304;BME280;22335;49.800;8.596;2023-08-21T18:36:03;100746.94;;;36.44;35.73
36304;BME280;22335;49.800;8.596;2023-08-21T18:42:46;100759.94;;;36.33;36.19
36304;BME280;22335;49.800;8.596;2023-08-21T18:49:30;100743.47;;;35.98;36.51
36304;BME280;22335;49.800;8.596;2023-08-21T18:56:15;100757.94;;;35.91;37.21
36304;BME280;22335;49.800;8.596;2023-08-21T19:02:58;100721.13;;;35.59;37.84
36304;BME280;22335;49.800;8.596;2023-08-21T19:09:42;100773.41;;;35.77;37.76
36304;BME280;22335;49.800;8.596;2023-08-21T19:16:27;100787.59;;;35.65;37.46
36304;BME280;22335;49.800;8.596;2023-08-21T19:23:10;100770.25;;;35.30;37.42
36304;BME280;22335;49.800;8.596;2023-08-21T19:29:54;100803.94;;;35.31;37.41
36304;BME280;22335;49.800;8.596;2023-08-21T19:36:39;100798.78;;;35.26;37.40
36304;BME280;22335;49.800;8.596;2023-08-21T19:43:25;100816.66;;;35.27;37.19
36304;BME280;22335;49.800;8.596;2023-08-21T19:50:09;100805.66;;;35.13;37.53
36304;BME280;22335;49.800;8.596;2023-08-21T19:56:54;100804.66;;;34.86;37.41
36304;BME280;22335;49.800;8.596;2023-08-21T20:03:37;100815.31;;;34.66;37.38
36304;BME280;22335;49.800;8.596;2023-08-21T20:10:21;100825.63;;;34.60;38.67
36304;BME280;22335;49.800;8.596;2023-08-21T20:17:07;100827.63;;;34.59;38.80
36304;BME280;22335;49.800;8.596;2023-08-21T20:23:50;100831.72;;;34.58;38.73
36304;BME280;22335;49.800;8.596;2023-08-21T20:30:34;100838.75;;;34.54;39.36
36304;BME280;22335;49.800;8.596;2023-08-21T20:37:19;100831.88;;;34.51;39.39
36304;BME280;22335;49.800;8.596;2023-08-21T20:44:02;100843.75;;;34.46;39.58
36304;BME280;22335;49.800;8.596;2023-08-21T20:50:46;100786.94;;;34.10;39.41
36304;BME280;22335;49.800;8.596;2023-08-21T20:57:32;100833.81;;;34.38;39.67
36304;BME280;22335;49.800;8.596;2023-08-21T21:04:15;100838.13;;;34.26;39.94
36304;BME280;22335;49.800;8.596;2023-08-21T21:10:59;100834.13;;;34.04;40.29
36304;BME280;22335;49.800;8.596;2023-08-21T21:17:44;100821.31;;;33.95;40.26
36304;BME280;22335;49.800;8.596;2023-08-21T21:24:27;100836.16;;;33.83;40.65
36304;BME280;22335;49.800;8.596;2023-08-21T21:31:11;100749.75;;;33.24;40.64
36304;BME280;22335;49.800;8.596;2023-08-21T21:37:56;100817.50;;;33.62;40.98
36304;BME280;22335;49.800;8.596;2023-08-21T21:44:39;100819.84;;;33.44;41.07
36304;BME280;22335;49.800;8.596;2023-08-21T21:51:23;100814.22;;;33.20;41.38
36304;BME280;22335;49.800;8.596;2023-08-21T21:58:08;100805.94;;;33.06;41.59
36304;BME280;22335;49.800;8.596;2023-08-21T22:04:51;100821.56;;;32.91;41.84
36304;BME280;22335;49.800;8.596;2023-08-21T22:11:35;100822.97;;;32.79;42.22
36304;BME280;22335;49.800;8.596;2023-08-21T22:18:20;100806.81;;;32.76;42.58
36304;BME280;22335;49.800;8.596;2023-08-21T22:25:04;100768.91;;;32.39;43.15
36304;BME280;22335;49.800;8.596;2023-08-21T22:31:48;100816.34;;;32.62;42.84
36304;BME280;22335;49.800;8.596;2023-08-21T22:38:33;100803.13;;;32.55;43.42
36304;BME280;22335;49.800;8.596;2023-08-21T22:45:16;100811.56;;;32.59;43.42
36304;BME280;22335;49.800;8.596;2023-08-21T22:52:00;100756.91;;;32.04;43.61
36304;BME280;22335;49.800;8.596;2023-08-21T22:58:45;100796.09;;;32.36;43.69
36304;BME280;22335;49.800;8.596;2023-08-21T23:05:28;100804.13;;;32.38;43.47
36304;BME280;22335;49.800;8.596;2023-08-21T23:12:12;100782.97;;;32.19;43.49
36304;BME280;22335;49.800;8.596;2023-08-21T23:18:57;100763.78;;;32.03;43.92
36304;BME280;22335;49.800;8.596;2023-08-21T23:25:42;100796.91;;;32.06;43.96
36304;BME280;22335;49.800;8.596;2023-08-21T23:32:25;100810.81;;;31.94;44.32
36304;BME280;22335;49.800;8.596;2023-08-21T23:39:10;100788.59;;;31.88;44.17
36304;BME280;22335;49.800;8.596;2023-08-21T23:45:53;100794.81;;;31.76;44.44
36304;BME280;22335;49.800;8.596;2023-08-21T23:52:37;100783.16;;;31.70;44.59
36304;BME280;22335;49.800;8.596;2023-08-21T23:59:22;100780.38;;;31.67;44.45
